Scroll down
FLIGHT INFORMATION
Federal Express (FedEx)

FDX29

At Arrival Gate

KIND
 PANC
DATE: 2022-05-26
GATE: 20
GATE DEPARTURE: 08:37
TAKEOFF: 08:47
DATE: 2022-05-26
GATE:  -
LANDING: 14:32
GATE ARRIVAL: 14:38
FLIGHT DATA
Crew: 
Speed: 
503 kts
Altitude: 
38,019 ft
Stage Length: 
2,618.0 nm
Block Time: 
6 hrs
Flight Time: 
5.8 hrs
Fuel Used: 
87,513 lb
Cleared Route: KIND BVT JOT DLL DLH HLDOL VBI YQD PETMA TULAG HOGAR 60N20 61N30 JAGIT TMSON PANC
TRACK DATA
50,000 ft 1,000 kts
AIRCRAFT INFO AND CUMULATIVE STATS
Aircraft Type: 
B77LF
Registration: 
SELCAL: 
EJAM
MSN/LN: 
42704 / 1528
Total Flights: 
5
Total Block Time: 
43.5 hrs
Total Flight Time: 
42.2 hrs
Total Fuel Used: 
700,808 lb
DATALINK LOG | Newest first | Current as of: 2022-12-08 13:46:52
LABEL SEQUENCE CONTENT Dn/Up
QD551814:38 20.3▼ Dn
QC491314:32▼ Dn
2U3407PANC 261553Z 21004KT 10SM BKN200 10/02 A2995 RMK AO2 SLP142 T01000017▲ Up
2S3407PANC▼ Dn
UM201765CLEARED TO FL 380▲ Up
DM61755REQUEST FL 380 DUE TO A/C PERF▼ Dn
QB034808:47▼ Dn
QA533908:37 107.8▼ Dn
2U2715PANC 261053Z 15007KT 10SM SCT110 08/04 A2993 RMK AO2 SLP137 T00830039▲ Up
2U2715PAEN 261053Z AUTO 20005KT 10SM FEW110 04/03 A2995 RMK AO2 SLP144 T00440028 TSNO▲ Up
2U2714KIND 261122Z 18012KT 10SM -RA FEW017 BKN095 OVC120 20/17 A2989 RMK AO2 RAB21 P0000 T02000172▲ Up
2S2714KIND PANC PAEN▼ Dn
A32612CLEARED TO PANC VIA MEARZ7 BVT JOT DLL J538 VBI YQD PETMA TULAG HOGAR 6000N/12000W 6100N/13000W JAGIT NCA13 TMSON WITTI4. SQUAWK 0043.▲ Up
Q02511[LINK ACK]▲ Up
Q02511[LINK TEST]▼ Dn


AIRCRAFT HISTORY
FLIGHT DATE FLIGHT NO. ORIGIN DESTINATION CLEARED ROUTE BLOCK TIME FLIGHT TIME FUEL USED PILOT
2022-11-11FDX14RCTP PANC RCTP MOLKA MAMOD MUMBA MELEN INVAM MOMPA MIDAI MADOG MAGUT EGERU MEXIR IMPAL OTOWA ANKIX IGMIS MOSLO TASOT LAKOS LIGNI POROT DOVIX PUTER POXED PUGAL PASRO POWAL PLADO PINSO POOFF PANC8.8 hrs8.5 hrs148,585 lbAllan Burek
2022-11-04FDX169PANC RCTP PANC SQA ORCCA ORVIL ONEOX OGGOE OFORD OBOYD ONEIL NYMPH NUZAN NRKEY NIPPI NOGAL NUBDA NANNO NODAN NANAC NIKON BEKEN IXE DAIGO JD AKAGI GYODA TEPEX OSPAN PIGAP TENRU SUGAL NAKTU SWING CBE LABEL BALSA SUKMO AVKAM DONKY LEONA HKC KAZAN KOSHI JEDAI RUSAR AKVAS URUMA SAPET IGMON BULAN OSTAR AISAR DRAKE RCTP10.5 hrs10.3 hrs137,963 lbAllan Burek
2022-05-26FDX29KIND PANC KIND BVT JOT DLL DLH HLDOL VBI YQD PETMA TULAG HOGAR 60N20 61N30 JAGIT TMSON PANC6 hrs5.8 hrs87,513 lbAllan Burek
2021-07-23FDX12RJBB KIND RJBB MAIKO KAWAT CHIZU YME KMC OYABE IMIZU URUSI IKUJI GORYU HAKBA TERAD GTC ELDAK SDE BEKEN OATIS PUTER POXED PUGAL PASRO POWAL CHIKI RIZON 53N60 53N50 52N40 ORNAI SPONJ UDMAP SEFIX YYJ WOBED GTF FAR GEP ODI SIBER BRIBE COTON JOT EMMLY KIND12.4 hrs12 hrs230,394 lbZsolt Szivak
2021-03-02FDX9828WSSS RJBB WSSS TOPOM DOKTA HOSBA TOMAN VERIN LUSMO AKMON UDOSI ALDAS AGSAM ANOKI ARESI AKOTA AVMUP ALDIS ABVAR MEVIN MAGMA SADEK KAZIK IKEMA YURIX ANOXA SWANO SEPIA TGE TEPPO JOKER QUEEN JACKY HIROS MADOG SUC STORK BRAVE KARIN BECKY EVIAN ASAMI BAGLE BERRY YOSSY RW06L5.9 hrs5.6 hrs96,353 lbDan Downs